createdAt,value
2022-10-12T00:00:52.090Z,7.54
2022-10-12T00:03:20.684Z,7.53
2022-10-12T00:05:51.459Z,7.54
2022-10-12T00:08:19.434Z,7.56
2022-10-12T00:10:47.284Z,7.54
2022-10-12T00:13:16.039Z,7.54
2022-10-12T00:15:44.026Z,7.50
2022-10-12T00:18:13.288Z,7.47
2022-10-12T00:20:41.248Z,7.47
2022-10-12T00:23:09.177Z,7.45
2022-10-12T00:25:38.138Z,7.45
2022-10-12T00:28:06.805Z,7.43
2022-10-12T00:30:34.822Z,7.43
2022-10-12T00:33:02.795Z,7.40
2022-10-12T00:35:32.202Z,7.41
2022-10-12T00:38:00.248Z,7.40
2022-10-12T00:40:28.319Z,7.38
2022-10-12T00:42:56.408Z,7.37
2022-10-12T00:45:26.171Z,7.36
2022-10-12T00:47:58.156Z,7.33
2022-10-12T00:50:30.126Z,7.31
2022-10-12T00:53:05.161Z,7.28
2022-10-12T00:55:36.981Z,7.27
2022-10-12T00:58:08.364Z,7.30
2022-10-12T01:00:38.760Z,7.27
2022-10-12T01:03:09.229Z,7.21
2022-10-12T01:05:40.366Z,7.17
2022-10-12T01:08:09.975Z,7.20
2022-10-12T01:10:38.005Z,7.14
2022-10-12T01:13:06.976Z,7.10
2022-10-12T01:15:38.232Z,7.09
2022-10-12T01:18:14.647Z,7.09
2022-10-12T01:20:49.484Z,7.06
2022-10-12T01:23:41.628Z,7.07
2022-10-12T01:26:32.516Z,7.04
2022-10-12T01:29:14.758Z,7.02
2022-10-12T01:31:49.615Z,7.01
2022-10-12T01:34:23.751Z,7.03
2022-10-12T01:36:58.316Z,6.97
2022-10-12T01:39:33.665Z,6.97
2022-10-12T01:42:05.475Z,6.96
2022-10-12T01:44:33.996Z,6.92
2022-10-12T01:47:03.408Z,6.91
2022-10-12T01:49:34.986Z,6.88
2022-10-12T01:52:19.822Z,6.89
2022-10-12T01:55:12.587Z,6.87
2022-10-12T01:57:55.816Z,6.86
2022-10-12T02:00:24.063Z,6.88
2022-10-12T02:03:00.581Z,6.86
2022-10-12T02:05:36.986Z,6.84
2022-10-12T02:08:10.608Z,6.83
2022-10-12T02:10:48.679Z,6.82
2022-10-12T02:13:20.708Z,6.82
2022-10-12T02:15:49.826Z,6.78
2022-10-12T02:18:22.788Z,6.76
2022-10-12T02:20:55.564Z,6.76
2022-10-12T02:23:25.634Z,6.76
2022-10-12T02:25:54.888Z,6.76
2022-10-12T02:28:26.375Z,6.74
2022-10-12T02:31:00.965Z,6.74
2022-10-12T02:33:36.510Z,6.73
2022-10-12T02:36:11.799Z,6.72
2022-10-12T02:38:44.253Z,6.69
2022-10-12T02:41:16.229Z,6.65
2022-10-12T02:43:47.994Z,6.65
2022-10-12T02:46:19.606Z,6.63
2022-10-12T02:48:50.612Z,6.60
2022-10-12T02:51:19.991Z,6.55
2022-10-12T02:53:48.303Z,6.54
2022-10-12T02:56:17.360Z,6.56
2022-10-12T02:58:46.953Z,6.54
2022-10-12T03:01:17.056Z,6.53
2022-10-12T03:03:45.928Z,6.51
2022-10-12T03:06:15.522Z,6.50
2022-10-12T03:08:43.391Z,6.41
2022-10-12T03:11:13.993Z,6.33
2022-10-12T03:13:42.052Z,6.17
2022-10-12T03:16:12.375Z,6.18
2022-10-12T03:18:40.556Z,6.16
2022-10-12T03:21:08.597Z,6.17
2022-10-12T03:23:38.113Z,6.20
2022-10-12T03:26:07.012Z,6.24
2022-10-12T03:28:35.455Z,6.21
2022-10-12T03:31:03.754Z,6.25
2022-10-12T03:33:31.741Z,6.23
2022-10-12T03:35:59.760Z,6.15
2022-10-12T03:38:27.698Z,6.19
2022-10-12T03:40:57.393Z,6.25
2022-10-12T03:43:25.319Z,6.28
2022-10-12T03:45:54.194Z,6.26
2022-10-12T03:48:22.333Z,6.27
2022-10-12T03:50:51.514Z,6.25
2022-10-12T03:53:21.684Z,6.26
2022-10-12T03:55:49.951Z,6.24
2022-10-12T03:58:19.387Z,6.23
2022-10-12T04:00:47.373Z,6.19
2022-10-12T04:03:15.367Z,6.20
2022-10-12T04:05:43.495Z,6.17
2022-10-12T04:08:11.503Z,6.11
2022-10-12T04:10:39.496Z,6.01
2022-10-12T04:13:07.470Z,5.90
2022-10-12T04:15:38.192Z,5.88
2022-10-12T04:18:06.408Z,5.97
2022-10-12T04:20:34.372Z,6.01
2022-10-12T04:23:02.416Z,6.03
2022-10-12T04:25:30.536Z,6.03
2022-10-12T04:27:58.490Z,5.92
2022-10-12T04:30:26.444Z,5.85
2022-10-12T04:32:56.643Z,5.85
2022-10-12T04:35:24.838Z,5.85
2022-10-12T04:37:52.807Z,5.82
2022-10-12T04:40:20.779Z,5.77
2022-10-12T04:42:48.824Z,5.78
2022-10-12T04:45:16.907Z,5.83
2022-10-12T04:47:44.826Z,5.84
2022-10-12T04:50:14.173Z,5.81
2022-10-12T04:52:42.241Z,5.86
2022-10-12T04:55:10.565Z,5.83
2022-10-12T04:57:38.963Z,5.82
2022-10-12T05:00:08.218Z,5.79
2022-10-12T05:02:36.496Z,5.77
2022-10-12T05:05:04.957Z,5.83
2022-10-12T05:07:34.459Z,5.84
2022-10-12T05:10:02.550Z,5.84
2022-10-12T05:12:30.512Z,5.79
2022-10-12T05:14:58.489Z,5.81
2022-10-12T05:17:26.353Z,5.78
2022-10-12T05:19:54.313Z,5.74
2022-10-12T05:22:22.203Z,5.73
2022-10-12T05:24:53.885Z,5.72
2022-10-12T05:27:22.301Z,5.69
2022-10-12T05:29:50.207Z,5.71
2022-10-12T05:32:18.357Z,5.74
2022-10-12T05:34:46.317Z,5.75
2022-10-12T05:37:14.852Z,5.65
2022-10-12T05:39:42.922Z,5.69
2022-10-12T05:42:12.307Z,5.68
2022-10-12T05:44:40.243Z,5.72
2022-10-12T05:47:08.226Z,5.71
2022-10-12T05:49:36.746Z,5.70
2022-10-12T05:52:04.985Z,5.72
2022-10-12T05:54:33.348Z,5.75
2022-10-12T05:57:01.337Z,5.67
2022-10-12T05:59:34.199Z,5.67
2022-10-12T06:02:02.657Z,5.75
2022-10-12T06:04:30.832Z,5.75
2022-10-12T06:06:59.091Z,5.81
2022-10-12T06:09:29.074Z,5.87
2022-10-12T06:11:57.909Z,5.92
2022-10-12T06:14:26.195Z,5.95
2022-10-12T06:16:58.346Z,6.01
2022-10-12T06:19:26.514Z,6.06
2022-10-12T06:21:54.777Z,6.05
2022-10-12T06:24:22.874Z,6.03
2022-10-12T06:26:52.075Z,6.10
2022-10-12T06:29:23.238Z,6.17
2022-10-12T06:31:52.039Z,6.19
2022-10-12T06:34:21.911Z,6.21
2022-10-12T06:36:50.164Z,6.23
2022-10-12T06:39:18.126Z,6.28
2022-10-12T06:41:46.579Z,6.28
2022-10-12T06:44:15.218Z,6.35
2022-10-12T06:46:43.163Z,6.35
2022-10-12T06:49:11.865Z,6.37
2022-10-12T06:51:41.858Z,6.43
2022-10-12T06:54:09.815Z,6.49
2022-10-12T06:56:39.576Z,6.56
2022-10-12T06:59:07.920Z,6.65
2022-10-12T07:01:35.816Z,6.69
2022-10-12T07:04:04.040Z,6.71
2022-10-12T07:06:32.415Z,6.72
2022-10-12T07:09:02.294Z,6.76
2022-10-12T07:11:30.300Z,6.81
2022-10-12T07:13:59.241Z,6.89
2022-10-12T07:16:27.173Z,6.99
2022-10-12T07:18:55.107Z,7.08
2022-10-12T07:21:23.001Z,7.10
2022-10-12T07:23:50.988Z,7.12
2022-10-12T07:26:22.362Z,7.14
2022-10-12T07:28:50.337Z,7.11
2022-10-12T07:31:18.482Z,7.05
2022-10-12T07:33:46.746Z,7.03
2022-10-12T07:36:20.583Z,7.19
2022-10-12T07:38:51.546Z,7.29
2022-10-12T07:41:21.555Z,7.25
2022-10-12T07:43:56.590Z,7.42
2022-10-12T07:46:25.367Z,7.63
2022-10-12T07:48:53.419Z,7.73
2022-10-12T07:51:21.395Z,7.79
2022-10-12T07:53:50.708Z,7.77
2022-10-12T07:56:20.365Z,7.89
2022-10-12T07:58:53.294Z,7.97
2022-10-12T08:01:23.301Z,8.08
2022-10-12T08:03:51.973Z,8.15
2022-10-12T08:06:21.686Z,8.22
2022-10-12T08:08:50.061Z,8.33
2022-10-12T08:11:18.636Z,8.38
2022-10-12T08:13:48.424Z,8.47
2022-10-12T08:16:19.517Z,8.55
2022-10-12T08:18:47.727Z,8.61
2022-10-12T08:21:17.507Z,8.64
2022-10-12T08:23:47.546Z,8.71
2022-10-12T08:26:17.412Z,8.72
2022-10-12T08:28:45.624Z,8.88
2022-10-12T08:31:19.443Z,8.96
2022-10-12T08:33:47.371Z,9.03
2022-10-12T08:36:15.430Z,9.13
2022-10-12T08:38:45.497Z,9.20
2022-10-12T08:41:24.357Z,9.20
2022-10-12T08:44:14.580Z,9.24
2022-10-12T08:46:44.071Z,9.35
2022-10-12T08:49:16.361Z,9.46
2022-10-12T08:51:48.352Z,9.57
2022-10-12T08:54:20.279Z,9.62
2022-10-12T08:56:48.549Z,9.63
2022-10-12T08:59:20.140Z,9.77
2022-10-12T09:02:04.925Z,9.87
2022-10-12T09:04:44.680Z,9.94
2022-10-12T09:07:17.066Z,10.02
2022-10-12T09:09:59.288Z,10.10
2022-10-12T09:12:45.495Z,10.17
2022-10-12T09:15:18.472Z,10.24
2022-10-12T09:17:51.186Z,10.36
2022-10-12T09:20:22.422Z,10.39
2022-10-12T09:22:52.285Z,10.47
2022-10-12T09:25:24.796Z,10.60
2022-10-12T09:27:53.466Z,10.68
2022-10-12T09:30:22.260Z,10.80
2022-10-12T09:33:06.107Z,10.82
2022-10-12T09:35:34.756Z,10.82
2022-10-12T09:38:03.488Z,10.95
2022-10-12T09:40:33.358Z,10.98
2022-10-12T09:43:03.508Z,11.03
2022-10-12T09:45:36.808Z,11.04
2022-10-12T09:48:21.088Z,11.13
2022-10-12T09:50:55.398Z,11.18
2022-10-12T09:53:27.961Z,11.29
2022-10-12T09:55:59.816Z,11.36
2022-10-12T09:58:30.898Z,11.46
2022-10-12T10:01:29.939Z,11.56
2022-10-12T10:04:15.749Z,11.59
2022-10-12T10:06:45.496Z,11.68
2022-10-12T10:09:31.986Z,11.78
2022-10-12T10:12:14.781Z,11.84
2022-10-12T10:14:45.409Z,11.90
2022-10-12T10:17:17.042Z,11.96
2022-10-12T10:19:51.638Z,12.09
2022-10-12T10:22:22.836Z,12.18
2022-10-12T10:24:55.233Z,12.17
2022-10-12T10:27:37.836Z,12.29
2022-10-12T10:30:40.732Z,12.38
2022-10-12T10:33:16.800Z,12.60
2022-10-12T10:36:00.794Z,12.66
2022-10-12T10:38:32.650Z,12.72
2022-10-12T10:41:03.820Z,12.76
2022-10-12T10:43:34.079Z,12.78
2022-10-12T10:46:04.568Z,12.90
2022-10-12T10:48:39.972Z,12.91
2022-10-12T10:51:11.720Z,12.94
2022-10-12T10:53:45.410Z,12.95
2022-10-12T10:56:21.246Z,13.10
2022-10-12T10:58:52.328Z,13.16
2022-10-12T11:01:25.509Z,13.18
2022-10-12T11:04:00.389Z,13.27
2022-10-12T11:06:39.501Z,13.30
2022-10-12T11:09:12.473Z,13.40
2022-10-12T11:11:43.235Z,13.45
2022-10-12T11:14:19.811Z,13.46
2022-10-12T11:16:56.444Z,13.46
2022-10-12T11:19:32.216Z,13.44
2022-10-12T11:22:06.486Z,13.45
2022-10-12T11:24:44.470Z,13.38
2022-10-12T11:27:19.048Z,13.34
2022-10-12T11:30:02.790Z,13.30
2022-10-12T11:32:41.322Z,13.31
2022-10-12T11:35:20.119Z,13.43
2022-10-12T11:37:57.003Z,13.42
2022-10-12T11:40:48.096Z,13.48
2022-10-12T11:43:22.345Z,13.50
2022-10-12T11:45:53.690Z,13.54
2022-10-12T11:48:40.368Z,13.61
2022-10-12T11:51:08.563Z,13.62
2022-10-12T11:53:49.068Z,13.69
2022-10-12T11:56:24.882Z,13.66
2022-10-12T11:59:01.784Z,13.69
2022-10-12T12:01:46.662Z,13.75
2022-10-12T12:04:41.150Z,13.79
2022-10-12T12:07:42.759Z,13.84
2022-10-12T12:10:51.903Z,13.91
2022-10-12T12:13:27.138Z,13.98
2022-10-12T12:16:27.518Z,14.01
2022-10-12T12:19:16.171Z,14.05
2022-10-12T12:22:21.515Z,14.05
2022-10-12T12:24:56.661Z,14.06
2022-10-12T12:27:35.532Z,14.13
2022-10-12T12:30:08.090Z,14.13
2022-10-12T12:32:46.857Z,14.09
2022-10-12T12:35:29.805Z,14.18
2022-10-12T12:38:17.278Z,14.20
2022-10-12T12:41:11.866Z,14.19
2022-10-12T12:43:57.232Z,14.17
2022-10-12T12:46:48.127Z,14.15
2022-10-12T12:49:28.486Z,14.26
2022-10-12T12:51:59.822Z,14.25
2022-10-12T12:54:28.805Z,14.28
2022-10-12T12:57:28.068Z,14.34
2022-10-12T13:00:18.417Z,14.38
2022-10-12T13:03:44.760Z,14.40
2022-10-12T13:06:48.876Z,14.41
2022-10-12T13:09:40.599Z,14.47
2022-10-12T13:12:28.424Z,14.44
2022-10-12T13:15:08.465Z,14.46
2022-10-12T13:17:53.535Z,14.50
2022-10-12T13:20:23.979Z,14.49
2022-10-12T13:22:55.176Z,14.49
2022-10-12T13:25:30.858Z,14.46
2022-10-12T13:28:01.973Z,14.47
2022-10-12T13:30:36.153Z,14.52
2022-10-12T13:33:15.364Z,14.52
2022-10-12T13:35:49.247Z,14.56
2022-10-12T13:38:22.863Z,14.61
2022-10-12T13:41:02.612Z,14.76
2022-10-12T13:43:35.453Z,14.76
2022-10-12T13:46:03.981Z,14.80
2022-10-12T13:48:58.103Z,14.87
2022-10-12T13:51:26.837Z,14.85
2022-10-12T13:53:55.065Z,14.89
2022-10-12T13:56:27.193Z,14.91
2022-10-12T13:59:00.128Z,14.90
2022-10-12T14:01:30.278Z,14.90
2022-10-12T14:04:08.290Z,14.77
2022-10-12T14:06:38.388Z,14.70
2022-10-12T14:09:10.690Z,14.72
2022-10-12T14:11:39.992Z,14.69
2022-10-12T14:14:16.344Z,14.69
2022-10-12T14:16:44.533Z,14.73
2022-10-12T14:19:22.154Z,14.83
2022-10-12T14:21:50.734Z,14.83
2022-10-12T14:24:20.504Z,14.86
2022-10-12T14:26:55.255Z,14.80
2022-10-12T14:29:31.941Z,14.84
2022-10-12T14:32:01.782Z,14.80
2022-10-12T14:34:39.013Z,14.78
2022-10-12T14:37:30.390Z,14.76
2022-10-12T14:40:02.641Z,14.72
2022-10-12T14:42:34.065Z,14.71
2022-10-12T14:45:03.211Z,14.67
2022-10-12T14:47:33.763Z,14.61
2022-10-12T14:50:08.273Z,14.62
2022-10-12T14:52:40.715Z,14.60
2022-10-12T14:55:14.815Z,14.61
2022-10-12T14:57:45.517Z,14.58
2022-10-12T15:00:16.310Z,14.58
2022-10-12T15:02:46.089Z,14.60
2022-10-12T15:05:18.575Z,14.60
2022-10-12T15:07:49.781Z,14.58
2022-10-12T15:10:22.610Z,14.59
2022-10-12T15:12:52.716Z,14.61
2022-10-12T15:15:39.579Z,14.60
2022-10-12T15:18:07.658Z,14.60
2022-10-12T15:20:37.369Z,14.67
2022-10-12T15:23:05.894Z,14.67
2022-10-12T15:25:41.033Z,14.58
2022-10-12T15:28:09.073Z,14.55
2022-10-12T15:30:52.155Z,14.58
2022-10-12T15:33:26.267Z,14.61
2022-10-12T15:35:58.987Z,14.62
2022-10-12T15:38:45.375Z,14.63
2022-10-12T15:41:18.891Z,14.60
2022-10-12T15:43:46.944Z,14.53
2022-10-12T15:46:14.896Z,14.44
2022-10-12T15:48:43.966Z,14.40
2022-10-12T15:51:22.889Z,14.32
2022-10-12T15:53:51.724Z,14.26
2022-10-12T15:56:21.227Z,14.24
2022-10-12T15:58:51.314Z,14.08
2022-10-12T16:01:21.486Z,14.00
2022-10-12T16:03:49.935Z,13.89
2022-10-12T16:06:19.518Z,13.78
2022-10-12T16:08:47.576Z,13.69
2022-10-12T16:11:17.304Z,13.58
2022-10-12T16:13:56.333Z,13.47
2022-10-12T16:16:25.261Z,13.36
2022-10-12T16:18:54.052Z,13.25
2022-10-12T16:21:23.586Z,13.16
2022-10-12T16:23:51.827Z,13.05
2022-10-12T16:26:20.029Z,12.96
2022-10-12T16:28:48.258Z,12.88
2022-10-12T16:31:18.276Z,12.80
2022-10-12T16:33:46.866Z,12.72
2022-10-12T16:36:16.581Z,12.64
2022-10-12T16:38:46.654Z,12.60
2022-10-12T16:41:16.619Z,12.54
2022-10-12T16:43:45.391Z,12.46
2022-10-12T16:46:13.362Z,12.44
2022-10-12T16:48:41.553Z,12.35
2022-10-12T16:51:11.219Z,12.30
2022-10-12T16:53:42.266Z,12.22
2022-10-12T16:56:11.865Z,12.15
2022-10-12T16:58:40.199Z,12.09
2022-10-12T17:01:12.718Z,12.03
2022-10-12T17:03:41.147Z,11.89
2022-10-12T17:06:10.124Z,11.83
2022-10-12T17:08:39.317Z,11.78
2022-10-12T17:11:09.013Z,11.73
2022-10-12T17:13:39.798Z,11.68
2022-10-12T17:16:34.878Z,11.61
2022-10-12T17:19:03.469Z,11.54
2022-10-12T17:21:32.872Z,11.50
2022-10-12T17:24:01.628Z,11.46
2022-10-12T17:26:30.143Z,11.45
2022-10-12T17:28:59.813Z,11.39
2022-10-12T17:31:28.755Z,11.34
2022-10-12T17:33:57.023Z,11.28
2022-10-12T17:36:28.223Z,11.27
2022-10-12T17:38:57.781Z,11.24
2022-10-12T17:41:25.944Z,11.17
2022-10-12T17:43:54.020Z,11.12
2022-10-12T17:46:23.333Z,11.10
2022-10-12T17:48:51.452Z,11.04
2022-10-12T17:51:19.526Z,11.05
2022-10-12T17:53:47.656Z,11.05
2022-10-12T17:56:19.163Z,11.02
2022-10-12T17:58:47.274Z,10.99
2022-10-12T18:01:17.057Z,10.92
2022-10-12T18:03:47.737Z,10.89
2022-10-12T18:06:17.590Z,10.90
2022-10-12T18:08:46.077Z,10.85
2022-10-12T18:11:14.841Z,10.84
2022-10-12T18:13:50.656Z,10.83
2022-10-12T18:16:20.858Z,10.80
2022-10-12T18:18:52.496Z,10.74
2022-10-12T18:21:23.924Z,10.75
2022-10-12T18:23:53.743Z,10.70
2022-10-12T18:26:22.895Z,10.67
2022-10-12T18:28:52.398Z,10.63
2022-10-12T18:31:22.664Z,10.58
2022-10-12T18:33:53.417Z,10.55
2022-10-12T18:36:21.981Z,10.53
2022-10-12T18:38:49.967Z,10.51
2022-10-12T18:41:22.393Z,10.51
2022-10-12T18:43:55.075Z,10.49
2022-10-12T18:46:23.065Z,10.50
2022-10-12T18:48:52.836Z,10.50
2022-10-12T18:51:24.989Z,10.49
2022-10-12T18:53:52.977Z,10.49
2022-10-12T18:56:21.354Z,10.47
2022-10-12T18:58:49.505Z,10.45
2022-10-12T19:01:20.218Z,10.46
2022-10-12T19:03:49.910Z,10.42
2022-10-12T19:06:21.917Z,10.41
2022-10-12T19:08:51.017Z,10.43
2022-10-12T19:11:21.093Z,10.45
2022-10-12T19:13:54.172Z,10.45
2022-10-12T19:16:24.824Z,10.47
2022-10-12T19:18:57.769Z,10.54
2022-10-12T19:21:27.461Z,10.53
2022-10-12T19:23:55.840Z,10.53
2022-10-12T19:26:25.964Z,10.52
2022-10-12T19:28:56.129Z,10.52
2022-10-12T19:31:26.785Z,10.49
2022-10-12T19:33:56.780Z,10.42
2022-10-12T19:36:25.475Z,10.41
2022-10-12T19:38:56.241Z,10.39
2022-10-12T19:41:24.665Z,10.41
2022-10-12T19:43:53.201Z,10.43
2022-10-12T19:46:21.773Z,10.50
2022-10-12T19:48:51.019Z,10.55
2022-10-12T19:51:20.794Z,10.58
2022-10-12T19:53:49.322Z,10.57
2022-10-12T19:56:20.951Z,10.52
2022-10-12T19:58:50.109Z,10.45
2022-10-12T20:01:23.054Z,10.37
2022-10-12T20:03:51.600Z,10.32
2022-10-12T20:06:20.702Z,10.27
2022-10-12T20:08:49.175Z,10.29
2022-10-12T20:11:24.698Z,10.29
2022-10-12T20:13:56.339Z,10.27
2022-10-12T20:16:25.006Z,10.28
2022-10-12T20:18:54.307Z,10.28
2022-10-12T20:21:23.841Z,10.27
2022-10-12T20:23:52.641Z,10.30
2022-10-12T20:26:24.386Z,10.35
2022-10-12T20:28:54.020Z,10.39
2022-10-12T20:31:24.568Z,10.46
2022-10-12T20:33:53.875Z,10.51
2022-10-12T20:36:23.824Z,10.46
2022-10-12T20:38:52.406Z,10.39
2022-10-12T20:41:25.506Z,10.36
2022-10-12T20:43:55.960Z,10.33
2022-10-12T20:46:24.426Z,10.33
2022-10-12T20:48:58.018Z,10.26
2022-10-12T20:51:28.891Z,10.19
2022-10-12T20:53:59.133Z,10.13
2022-10-12T20:56:29.269Z,10.17
2022-10-12T20:58:57.369Z,10.13
2022-10-12T21:01:28.540Z,10.16
2022-10-12T21:03:57.236Z,10.13
2022-10-12T21:06:25.939Z,10.11
2022-10-12T21:08:55.965Z,10.06
2022-10-12T21:11:24.654Z,10.03
2022-10-12T21:13:54.294Z,10.00
2022-10-12T21:16:22.138Z,9.98
2022-10-12T21:18:50.345Z,9.97
2022-10-12T21:21:19.825Z,9.95
2022-10-12T21:23:53.971Z,9.86
2022-10-12T21:26:23.529Z,9.86
2022-10-12T21:28:53.248Z,9.84
2022-10-12T21:31:22.034Z,9.71
2022-10-12T21:33:50.220Z,9.65
2022-10-12T21:36:21.307Z,9.65
2022-10-12T21:38:50.528Z,9.64
2022-10-12T21:41:19.979Z,9.63
2022-10-12T21:43:49.484Z,9.62
2022-10-12T21:46:21.515Z,9.60
2022-10-12T21:48:49.888Z,9.57
2022-10-12T21:51:19.112Z,9.56
2022-10-12T21:53:47.606Z,9.59
2022-10-12T21:56:18.811Z,9.60
2022-10-12T21:58:47.440Z,9.67
2022-10-12T22:01:16.889Z,9.66
2022-10-12T22:03:48.070Z,9.67
2022-10-12T22:06:18.095Z,9.71
2022-10-12T22:08:51.361Z,9.79
2022-10-12T22:11:23.573Z,9.81
2022-10-12T22:13:52.195Z,9.87
2022-10-12T22:16:20.430Z,9.81
2022-10-12T22:18:49.857Z,9.92
2022-10-12T22:21:20.117Z,9.96
2022-10-12T22:23:48.105Z,10.01
2022-10-12T22:26:18.620Z,10.03
2022-10-12T22:28:54.214Z,10.08
2022-10-12T22:31:24.529Z,10.09
2022-10-12T22:33:54.439Z,10.10
2022-10-12T22:36:22.466Z,10.06
2022-10-12T22:38:50.436Z,10.06
2022-10-12T22:41:20.584Z,10.01
2022-10-12T22:43:48.727Z,9.97
2022-10-12T22:46:17.190Z,9.91
2022-10-12T22:48:45.599Z,9.89
2022-10-12T22:51:17.365Z,9.83
2022-10-12T22:53:45.237Z,9.78
2022-10-12T22:56:16.683Z,9.75
2022-10-12T22:58:45.367Z,9.74
2022-10-12T23:01:17.450Z,9.75
2022-10-12T23:03:45.963Z,9.76
2022-10-12T23:06:18.058Z,9.79
2022-10-12T23:08:47.117Z,9.83
2022-10-12T23:11:17.931Z,9.85
2022-10-12T23:13:46.267Z,9.90
2022-10-12T23:16:17.512Z,9.83
2022-10-12T23:18:46.098Z,9.81
2022-10-12T23:21:17.969Z,9.77
2022-10-12T23:23:46.816Z,9.71
2022-10-12T23:26:17.133Z,9.65
2022-10-12T23:28:45.475Z,9.59
2022-10-12T23:31:18.848Z,9.55
2022-10-12T23:33:47.076Z,9.52
2022-10-12T23:36:18.232Z,9.51
2022-10-12T23:38:46.757Z,9.50
2022-10-12T23:41:14.951Z,9.48
2022-10-12T23:43:43.281Z,9.46
2022-10-12T23:46:12.503Z,9.44
2022-10-12T23:48:40.866Z,9.41
2022-10-12T23:51:09.624Z,9.42
2022-10-12T23:53:39.605Z,9.41
2022-10-12T23:56:08.169Z,9.41
2022-10-12T23:58:36.222Z,9.42
